ESNU

Details ICAO ESNU (UME)
Name Umea
Region Sweden
Timezone Europe/Stockholm (UTC+1.0)
Plans Departing 36
Arriving 56
Stats Elevation 24 ft / 7 m (AMSL)
Location 63.790814° 20.284786°
Runways 1
Magnetic Variation 7.968° E
Sunrise 2017-12-11 08:16:38 UTC / 2017-12-11 09:16:38 Local
Sunset 2017-12-11 12:50:27 UTC / 2017-12-11 13:50:27 Local
Advertisement - Login to hide

Runways

ID Width Length Bearing (true) Bearing (mag) Surface Threshold Offset Overrun Length
14 148 ft / 45 m 7,530 ft / 2,295 m 138.49° 130.52° Asphalt 0 ft / 0 m 0 ft / 0 m
32 148 ft / 45 m 7,530 ft / 2,295 m 318.52° 310.55° Asphalt 196 ft / 60 m 0 ft / 0 m

Approach Navaids

Runway Type Ident Frequency Range Bearing (true) Bearing (mag) Slope Elevation
14 Localiser NU 109.90 MHz 18 nm / 33 km 138.52° 130.55° - 24 ft / 7 m (AMSL)
14 Glidescope NU 109.90 MHz 10 nm / 19 km 138.50° 130.54° 3.00° 24 ft / 7 m (AMSL)
32 Localiser SNU 110.70 MHz 18 nm / 33 km 318.49° 310.52° - 24 ft / 7 m (AMSL)
32 Glidescope SNU 110.70 MHz 10 nm / 19 km 318.50° 310.54° 3.00° 24 ft / 7 m (AMSL)

Map

Weather


0- 5 10 15 20 25 30 35+ Temperature / ° C

Clouds and Precipitation
Forecast for 2017-12-11 12:00 UTC. Updated 2 hours ago

Ground ~20,000 ft ~40,000 ft Winds

METAR

ESNU 111050Z 11004KT 8000 -SN SCT009 BKN020 BKN026 00/00 Q0998 R14/75//37

TAF

Not found

Frequencies

Tower 118.07 MHz TWR
Tower 119.80 MHz TWR
Warning: Do not use this data for real-world aviation or navigation. No guarantee of current accuracy is given.